Time;durP1;ratioP1;P1;durP2;ratioP2;P2;SDS_P1;SDS_P2;PMS_P1;PMS_P2;Temp;Humidity;BMP_temperature;BMP_pressure;BME280_temperature;BME280_humidity;BME280_pressure;Samples;Min_cycle;Max_cycle;Signal;HPM_P1;HPM_P2
2023/09/16 00:03:51;;;;;;;8.23;6.63;;;;;;;15.89;71.14;100429.66;10476150;28;20052;-73
2023/09/16 00:08:54;;;;;;;7.63;6.82;;;;;;;15.85;71.54;100420.13;10483019;28;20046;-74
2023/09/16 00:13:57;;;;;;;9.27;6.63;;;;;;;15.80;70.96;100408.94;10484574;28;20055;-73
2023/09/16 00:19:02;;;;;;;8.10;7.28;;;;;;;15.70;71.31;100412.59;10485628;28;20085;-74
2023/09/16 00:24:06;;;;;;;9.13;6.72;;;;;;;15.76;71.49;100412.97;10485591;28;20056;-74
2023/09/16 00:29:08;;;;;;;8.18;7.10;;;;;;;15.78;71.62;100414.50;10482677;28;20044;-74
2023/09/16 00:34:13;;;;;;;7.50;6.65;;;;;;;15.97;71.12;100409.91;10479021;28;20048;-74
2023/09/16 00:39:17;;;;;;;8.95;6.90;;;;;;;16.06;70.84;100398.94;10471787;28;20065;-74
2023/09/16 00:44:19;;;;;;;9.90;6.28;;;;;;;16.14;70.69;100411.72;10484590;28;20044;-74
2023/09/16 00:49:26;;;;;;;9.93;6.80;;;;;;;16.32;70.33;100411.69;10481837;28;20040;-74
2023/09/16 00:54:30;;;;;;;9.50;7.10;;;;;;;16.33;70.02;100403.38;10475376;27;20051;-74
2023/09/16 00:59:33;;;;;;;9.63;7.35;;;;;;;16.28;69.99;100397.59;10472772;28;20083;-74
2023/09/16 01:04:39;;;;;;;10.57;6.75;;;;;;;16.31;70.34;100394.56;10475827;28;20120;-74
2023/09/16 01:09:42;;;;;;;10.20;7.10;;;;;;;16.27;69.97;100390.47;10479171;28;20463;-74
2023/09/16 01:14:45;;;;;;;8.00;7.20;;;;;;;16.23;70.06;100393.63;10482936;27;20389;-74
2023/09/16 01:19:57;;;;;;;8.43;6.40;;;;;;;16.18;70.02;100383.28;10478262;28;20055;-74
2023/09/16 01:25:03;;;;;;;9.13;6.47;;;;;;;16.28;69.94;100388.63;10482196;28;20491;-74
2023/09/16 01:30:07;;;;;;;7.50;6.40;;;;;;;16.39;69.74;100390.19;10484648;28;20040;-74
2023/09/16 01:35:15;;;;;;;11.05;6.57;;;;;;;16.52;69.75;100388.72;10482628;28;20044;-75
2023/09/16 01:40:23;;;;;;;9.75;7.70;;;;;;;16.51;69.09;100387.03;10480317;28;20051;-74
2023/09/16 01:45:28;;;;;;;9.27;6.75;;;;;;;16.46;68.96;100378.53;10474788;28;20094;-74
2023/09/16 01:50:31;;;;;;;8.18;7.13;;;;;;;16.45;68.60;100387.66;10482104;28;20040;-74
2023/09/16 01:55:35;;;;;;;7.63;6.82;;;;;;;16.46;69.01;100375.00;10481848;28;20536;-75
2023/09/16 02:00:38;;;;;;;7.93;6.95;;;;;;;16.42;68.99;100382.56;10479891;28;20515;-75
2023/09/16 02:05:41;;;;;;;6.75;5.85;;;;;;;16.53;69.18;100385.00;10480981;28;20048;-74
2023/09/16 02:10:46;;;;;;;11.77;6.90;;;;;;;16.63;69.32;100384.03;10475871;28;20048;-74
2023/09/16 02:15:49;;;;;;;12.93;6.90;;;;;;;16.72;68.96;100380.31;10471149;28;20040;-74
2023/09/16 02:20:52;;;;;;;7.28;6.20;;;;;;;16.78;68.86;100374.22;10473070;28;20058;-74
2023/09/16 02:26:00;;;;;;;8.32;6.53;;;;;;;16.83;68.89;100380.03;10474889;28;20053;-74
2023/09/16 02:31:03;;;;;;;7.20;5.93;;;;;;;16.81;68.26;100377.50;10466748;28;20420;-74
2023/09/16 02:36:06;;;;;;;7.25;5.90;;;;;;;16.84;68.42;100367.28;10482244;28;20046;-74
2023/09/16 02:41:11;;;;;;;10.38;7.18;;;;;;;16.70;68.65;100368.78;10467731;28;20051;-74
2023/09/16 02:46:14;;;;;;;7.40;6.70;;;;;;;16.69;68.57;100370.66;10474677;28;20052;-74
2023/09/16 02:51:17;;;;;;;10.60;6.63;;;;;;;16.68;68.62;100368.13;10479957;28;21191;-74
2023/09/16 02:56:22;;;;;;;9.10;5.95;;;;;;;16.68;68.84;100368.13;10494397;28;20054;-74
2023/09/16 03:01:25;;;;;;;6.50;5.32;;;;;;;16.67;68.92;100361.81;10504372;27;20146;-74
2023/09/16 03:06:28;;;;;;;6.35;5.68;;;;;;;16.76;69.45;100358.16;10478136;28;20075;-74
2023/09/16 03:11:32;;;;;;;7.15;5.85;;;;;;;16.79;69.42;100354.25;10482095;28;20036;-74
2023/09/16 03:16:36;;;;;;;6.97;6.13;;;;;;;16.78;69.37;100356.13;10481807;28;20045;-74
2023/09/16 03:21:39;;;;;;;7.30;6.53;;;;;;;16.66;68.96;100360.13;10481465;28;20086;-74
2023/09/16 03:26:44;;;;;;;7.22;6.28;;;;;;;16.59;69.17;100353.66;10481586;28;20075;-73
2023/09/16 03:31:48;;;;;;;7.93;6.00;;;;;;;16.54;68.85;100354.19;10481322;28;20054;-73
2023/09/16 03:36:55;;;;;;;9.60;7.57;;;;;;;16.51;68.91;100350.91;10481674;28;20071;-74
2023/09/16 03:41:59;;;;;;;7.20;6.50;;;;;;;16.52;69.03;100349.94;10481488;28;20047;-74
2023/09/16 03:47:03;;;;;;;6.97;6.28;;;;;;;16.56;68.96;100337.72;10481981;28;20150;-74
2023/09/16 03:52:10;;;;;;;10.00;6.43;;;;;;;16.52;69.28;100322.81;10479216;28;20063;-74
2023/09/16 03:57:14;;;;;;;6.80;6.10;;;;;;;16.50;69.11;100319.41;10480316;28;20048;-74
2023/09/16 04:02:18;;;;;;;10.23;7.13;;;;;;;16.41;69.49;100315.81;10471462;28;20036;-74
2023/09/16 04:07:21;;;;;;;7.30;6.40;;;;;;;16.36;69.33;100313.59;10480838;28;20413;-74
2023/09/16 04:12:27;;;;;;;8.90;6.47;;;;;;;16.34;69.55;100312.06;10479163;28;20097;-73
2023/09/16 04:17:32;;;;;;;9.00;6.00;;;;;;;16.30;69.35;100319.69;10472239;28;20045;-73
2023/09/16 04:22:35;;;;;;;7.28;6.32;;;;;;;16.30;69.48;100316.13;10485122;28;20185;-73
2023/09/16 04:27:39;;;;;;;7.13;6.15;;;;;;;16.31;68.94;100318.66;10484500;28;20050;-73
2023/09/16 04:32:44;;;;;;;6.70;6.00;;;;;;;16.32;68.90;100319.53;10480847;28;20044;-73
2023/09/16 04:37:47;;;;;;;6.57;5.88;;;;;;;16.29;68.68;100319.84;10477194;28;20126;-74
2023/09/16 04:42:53;;;;;;;6.32;5.45;;;;;;;16.29;68.70;100315.28;10479762;28;20051;-74
2023/09/16 04:47:57;;;;;;;6.22;5.22;;;;;;;16.33;68.74;100316.66;10481783;28;20040;-74
2023/09/16 04:53:01;;;;;;;7.13;5.43;;;;;;;16.28;68.40;100318.16;10478442;28;20150;-74
2023/09/16 04:58:06;;;;;;;8.07;5.60;;;;;;;16.27;68.73;100313.75;10481210;28;20098;-74
2023/09/16 05:03:09;;;;;;;6.82;5.38;;;;;;;16.25;68.99;100307.59;10478204;28;20047;-74
2023/09/16 05:08:13;;;;;;;7.70;5.18;;;;;;;16.34;68.56;100306.63;10479368;28;20040;-74
2023/09/16 05:13:17;;;;;;;7.15;5.10;;;;;;;16.36;68.49;100316.31;10477860;28;20663;-74
2023/09/16 05:18:22;;;;;;;6.70;5.15;;;;;;;16.41;68.15;100309.56;10476478;28;20153;-73
2023/09/16 05:23:24;;;;;;;5.80;5.13;;;;;;;16.34;68.10;100309.34;10479017;28;20148;-74
2023/09/16 05:28:30;;;;;;;6.32;5.45;;;;;;;16.53;67.81;100317.22;10471860;28;21195;-74
2023/09/16 05:33:35;;;;;;;5.55;4.70;;;;;;;16.54;67.68;100310.78;10485608;28;20045;-74
2023/09/16 05:38:38;;;;;;;5.97;5.38;;;;;;;16.56;67.45;100313.31;10471480;28;20706;-74
2023/09/16 05:43:42;;;;;;;6.47;4.40;;;;;;;16.63;67.26;100313.53;10463421;28;20494;-74
2023/09/16 05:48:45;;;;;;;6.97;5.00;;;;;;;16.64;67.20;100313.34;10475062;28;20055;-74
2023/09/16 05:53:48;;;;;;;6.10;5.20;;;;;;;16.77;67.01;100313.72;10464699;28;20048;-74
2023/09/16 05:58:54;;;;;;;5.90;5.40;;;;;;;16.84;66.64;100310.34;10464759;28;20048;-74
2023/09/16 06:03:58;;;;;;;5.53;4.75;;;;;;;16.88;66.72;100315.25;10467992;28;20055;-74
2023/09/16 06:09:03;;;;;;;6.22;5.30;;;;;;;16.95;66.15;100310.88;10465034;28;21432;-75
2023/09/16 06:14:07;;;;;;;7.07;4.78;;;;;;;16.95;66.04;100310.88;10472047;28;20427;-75
2023/09/16 06:19:10;;;;;;;5.70;4.97;;;;;;;16.83;65.99;100314.91;10481346;28;20061;-74
2023/09/16 06:24:13;;;;;;;9.82;5.40;;;;;;;16.95;65.72;100310.00;10479396;28;20052;-74
2023/09/16 06:29:17;;;;;;;5.25;4.75;;;;;;;17.14;65.24;100309.75;10483615;28;20050;-74
2023/09/16 06:34:20;;;;;;;6.93;4.70;;;;;;;17.15;65.28;100306.00;10487679;28;20602;-74
2023/09/16 06:39:27;;;;;;;5.72;4.63;;;;;;;17.22;64.57;100307.03;10497823;27;20098;-74
2023/09/16 06:44:31;;;;;;;10.07;4.60;;;;;;;17.37;64.57;100314.50;10477874;28;20098;-74
2023/09/16 06:49:34;;;;;;;6.60;5.03;;;;;;;17.37;64.12;100311.78;10481752;28;20786;-74
2023/09/16 06:54:37;;;;;;;6.25;4.70;;;;;;;17.57;63.72;100323.13;10486761;28;20633;-75
2023/09/16 06:59:41;;;;;;;4.90;3.65;;;;;;;17.54;64.09;100316.16;10480434;28;20480;-74
2023/09/16 07:04:45;;;;;;;6.07;4.28;;;;;;;17.61;63.58;100319.06;10481494;28;20052;-74
2023/09/16 07:09:48;;;;;;;6.88;4.47;;;;;;;17.54;63.56;100320.75;10479323;28;20132;-76
2023/09/16 07:14:53;;;;;;;5.45;4.90;;;;;;;17.47;64.09;100315.16;10472725;28;20704;-77
2023/09/16 07:19:55;;;;;;;5.35;4.85;;;;;;;18.27;62.25;100312.44;10478930;28;20142;-76
2023/09/16 07:24:58;;;;;;;5.88;4.03;;;;;;;18.81;60.41;100314.38;10483919;28;20052;-77
2023/09/16 07:30:03;;;;;;;5.18;4.40;;;;;;;18.94;60.42;100316.50;10487861;28;20048;-77
2023/09/16 07:35:06;;;;;;;6.50;4.53;;;;;;;19.27;59.48;100305.38;10484993;28;20509;-76
2023/09/16 07:40:10;;;;;;;4.95;4.53;;;;;;;19.60;58.57;100312.25;10487319;28;20047;-77
2023/09/16 07:45:14;;;;;;;4.78;4.38;;;;;;;19.65;57.76;100322.59;10486774;28;20147;-76
2023/09/16 07:50:17;;;;;;;5.50;4.78;;;;;;;19.94;56.87;100324.50;10484856;28;20044;-76
2023/09/16 07:55:20;;;;;;;7.43;4.22;;;;;;;19.97;57.19;100315.13;10481198;28;20048;-77
2023/09/16 08:00:25;;;;;;;6.00;4.20;;;;;;;20.69;56.11;100328.88;10486485;28;20142;-76
2023/09/16 08:05:28;;;;;;;3.97;3.67;;;;;;;21.36;54.87;100333.16;10487610;28;20036;-76
2023/09/16 08:10:31;;;;;;;4.53;4.10;;;;;;;21.56;53.00;100325.16;10480843;28;20193;-76
2023/09/16 08:15:35;;;;;;;5.63;3.85;;;;;;;21.55;53.48;100337.09;10484535;28;20052;-76
2023/09/16 08:20:38;;;;;;;4.75;3.92;;;;;;;21.67;53.27;100323.75;10478668;28;20044;-76
2023/09/16 08:25:41;;;;;;;4.28;3.83;;;;;;;21.66;53.26;100331.09;10486792;28;20732;-76
2023/09/16 08:30:46;;;;;;;4.53;3.78;;;;;;;22.21;51.50;100324.97;10495500;28;20071;-76
2023/09/16 08:35:49;;;;;;;4.45;3.80;;;;;;;22.47;51.43;100324.28;10496477;28;20194;-76
2023/09/16 08:41:01;;;;;;;6.35;4.28;;;;;;;22.72;51.62;100317.22;10493600;28;20039;-77
2023/09/16 08:46:10;;;;;;;4.63;4.13;;;;;;;22.78;50.13;100318.28;10498201;28;20059;-76
2023/09/16 08:51:17;;;;;;;5.07;4.20;;;;;;;23.01;51.40;100315.19;10496148;27;20599;-76
2023/09/16 08:56:20;;;;;;;5.00;4.10;;;;;;;23.06;50.26;100318.13;10488702;28;20516;-76
2023/09/16 09:01:24;;;;;;;6.40;3.88;;;;;;;23.51;49.22;100314.84;10488077;28;20056;-76
2023/09/16 09:06:29;;;;;;;4.93;3.80;;;;;;;23.20;49.73;100311.66;10489067;28;20530;-76
2023/09/16 09:11:43;;;;;;;5.93;4.15;;;;;;;23.44;49.58;100321.13;10484047;28;20578;-76
2023/09/16 09:16:52;;;;;;;3.95;3.65;;;;;;;23.92;49.46;100322.00;10486259;28;20058;-75
2023/09/16 09:21:57;;;;;;;4.68;3.65;;;;;;;24.38;48.73;100312.75;10488177;28;20086;-75
2023/09/16 09:27:00;;;;;;;3.80;3.47;;;;;;;24.93;47.90;100321.38;10490367;28;20053;-75
2023/09/16 09:32:05;;;;;;;3.67;3.40;;;;;;;25.02;47.01;100320.09;10482625;28;20060;-76
2023/09/16 09:37:16;;;;;;;4.18;3.88;;;;;;;25.06;47.50;100318.59;10479248;28;20048;-76
2023/09/16 09:42:20;;;;;;;3.88;3.58;;;;;;;25.29;47.58;100308.94;10484253;28;20082;-75
2023/09/16 09:47:24;;;;;;;4.07;3.75;;;;;;;25.37;46.38;100304.00;10493772;28;20044;-75
2023/09/16 09:52:27;;;;;;;4.55;3.78;;;;;;;25.67;47.00;100305.25;10492889;28;20080;-76
2023/09/16 09:57:30;;;;;;;4.85;4.32;;;;;;;25.86;46.77;100306.94;10492322;28;20055;-76
2023/09/16 10:02:36;;;;;;;4.18;3.78;;;;;;;26.10;46.03;100298.88;10495310;28;20040;-75
2023/09/16 10:07:41;;;;;;;5.82;3.67;;;;;;;25.74;45.57;100300.53;10506190;28;20068;-76
2023/09/16 10:12:45;;;;;;;4.00;3.20;;;;;;;26.16;46.66;100293.28;10497712;28;20059;-76
2023/09/16 10:17:50;;;;;;;3.83;3.53;;;;;;;26.22;46.41;100288.75;10494985;28;20739;-75
2023/09/16 10:22:53;;;;;;;6.07;3.63;;;;;;;26.97;45.10;100285.72;10486648;28;20170;-76
2023/09/16 10:28:00;;;;;;;5.65;3.50;;;;;;;27.46;44.22;100285.59;10492503;28;20048;-77
2023/09/16 10:33:06;;;;;;;4.72;3.40;;;;;;;27.53;43.64;100281.63;10492053;28;20101;-76
2023/09/16 10:38:11;;;;;;;3.72;3.42;;;;;;;27.68;44.12;100277.56;10478418;28;20055;-76
2023/09/16 10:43:15;;;;;;;6.22;3.15;;;;;;;27.74;44.26;100274.66;10470336;28;20067;-76
2023/09/16 10:48:20;;;;;;;3.80;3.50;;;;;;;27.99;44.40;100273.59;10477613;28;20193;-77
2023/09/16 10:53:24;;;;;;;6.35;3.00;;;;;;;28.27;43.62;100261.75;10474652;28;20047;-76
2023/09/16 10:58:32;;;;;;;3.63;3.30;;;;;;;28.73;42.54;100270.97;10478325;28;20055;-76
2023/09/16 11:03:40;;;;;;;3.20;3.00;;;;;;;29.54;41.69;100257.75;10482105;28;20076;-77
2023/09/16 11:08:43;;;;;;;6.10;3.10;;;;;;;30.33;38.71;100259.41;10481032;28;20135;-77
2023/09/16 11:13:48;;;;;;;3.10;2.90;;;;;;;29.71;40.04;100263.28;10475599;28;20055;-75
2023/09/16 11:18:53;;;;;;;3.53;3.20;;;;;;;28.97;40.22;100263.41;10476667;28;20040;-75
2023/09/16 11:23:57;;;;;;;3.30;3.10;;;;;;;29.68;39.85;100265.72;10483164;28;20110;-76
2023/09/16 11:29:00;;;;;;;3.00;2.80;;;;;;;29.96;40.52;100254.47;10474746;28;20040;-75
2023/09/16 11:34:08;;;;;;;3.70;2.78;;;;;;;30.19;38.85;100247.03;10479125;28;20063;-76
2023/09/16 11:39:17;;;;;;;3.60;3.30;;;;;;;30.21;38.98;100256.78;10477589;28;20037;-75
2023/09/16 11:44:21;;;;;;;3.28;2.97;;;;;;;29.75;38.79;100253.34;10481762;28;20052;-75
2023/09/16 11:49:25;;;;;;;3.67;2.90;;;;;;;29.80;38.74;100241.53;10480382;28;20056;-76
2023/09/16 11:54:28;;;;;;;4.88;2.95;;;;;;;30.36;38.19;100238.66;10480820;28;20052;-76
2023/09/16 11:59:31;;;;;;;2.85;2.65;;;;;;;30.71;37.26;100226.31;10489520;28;20044;-75
2023/09/16 12:04:36;;;;;;;3.30;3.10;;;;;;;30.43;37.84;100223.50;10488134;28;20515;-75
2023/09/16 12:09:40;;;;;;;5.85;3.47;;;;;;;29.99;37.73;100228.22;10488650;28;20088;-76
2023/09/16 12:14:43;;;;;;;3.72;3.35;;;;;;;30.21;38.22;100219.94;10485712;28;20055;-74
2023/09/16 12:19:51;;;;;;;4.05;3.75;;;;;;;30.16;37.51;100220.69;10506029;27;20051;-74
2023/09/16 12:24:54;;;;;;;2.90;2.70;;;;;;;30.73;37.27;100213.03;10485436;28;20525;-75
2023/09/16 12:29:58;;;;;;;5.93;2.95;;;;;;;30.37;37.72;100207.94;10479833;28;20789;-76
2023/09/16 12:35:06;;;;;;;3.38;3.08;;;;;;;30.57;37.38;100204.53;10486362;28;20130;-75
2023/09/16 12:40:10;;;;;;;3.55;3.25;;;;;;;30.87;36.37;100195.69;10487548;28;20048;-75
2023/09/16 12:45:13;;;;;;;5.15;3.40;;;;;;;30.30;37.69;100200.91;10479540;28;20171;-76
2023/09/16 12:50:18;;;;;;;3.33;3.13;;;;;;;30.53;37.85;100188.69;10482120;28;20047;-76
2023/09/16 12:55:25;;;;;;;3.17;2.88;;;;;;;31.22;36.33;100182.41;10486481;28;20051;-76
2023/09/16 13:00:28;;;;;;;3.83;2.95;;;;;;;32.14;36.31;100178.16;10489695;28;20100;-75
2023/09/16 13:05:32;;;;;;;3.10;2.80;;;;;;;32.98;34.15;100183.63;10486325;28;20052;-75
2023/09/16 13:10:36;;;;;;;3.67;2.90;;;;;;;32.95;33.41;100179.44;10494348;28;20066;-75
2023/09/16 13:15:42;;;;;;;3.53;2.95;;;;;;;32.31;34.28;100166.88;10491572;28;20109;-75
2023/09/16 13:20:47;;;;;;;4.30;2.78;;;;;;;32.44;34.35;100169.09;10495739;28;20121;-75
2023/09/16 13:25:49;;;;;;;3.28;2.80;;;;;;;34.36;33.11;100155.34;10493108;28;20059;-75
2023/09/16 13:30:54;;;;;;;3.03;2.75;;;;;;;34.52;32.14;100147.72;10489710;28;20051;-75
2023/09/16 13:36:00;;;;;;;3.22;2.97;;;;;;;33.89;32.62;100153.94;10492303;28;20048;-75
2023/09/16 13:41:04;;;;;;;4.18;2.90;;;;;;;33.73;33.00;100155.94;10487044;28;20055;-75
2023/09/16 13:46:07;;;;;;;3.03;2.83;;;;;;;34.11;33.13;100156.34;10489087;28;20044;-76
2023/09/16 13:51:12;;;;;;;3.20;3.00;;;;;;;33.96;33.01;100148.91;10484845;28;20048;-76
2023/09/16 13:56:16;;;;;;;3.25;3.05;;;;;;;33.25;33.96;100144.38;10485395;28;20054;-75
2023/09/16 14:01:19;;;;;;;2.80;2.40;;;;;;;31.90;35.52;100146.44;10479977;28;20055;-76
2023/09/16 14:06:24;;;;;;;2.88;2.60;;;;;;;31.38;37.16;100145.34;10478095;28;20246;-75
2023/09/16 14:11:27;;;;;;;3.00;2.72;;;;;;;31.05;37.18;100141.78;10479713;28;20499;-75
2023/09/16 14:16:30;;;;;;;4.25;2.95;;;;;;;30.80;36.75;100153.50;10473715;28;20580;-76
2023/09/16 14:21:35;;;;;;;3.05;2.78;;;;;;;30.36;38.11;100150.84;10482015;28;20055;-75
2023/09/16 14:26:38;;;;;;;3.47;3.17;;;;;;;30.35;38.25;100148.34;10483432;28;20054;-75
2023/09/16 14:31:41;;;;;;;3.05;2.85;;;;;;;30.68;38.33;100142.56;10487359;28;20068;-74
2023/09/16 14:36:46;;;;;;;3.08;2.88;;;;;;;30.43;37.50;100145.91;10488036;28;20056;-75
2023/09/16 14:41:49;;;;;;;3.00;2.70;;;;;;;30.76;38.38;100132.13;10489796;28;20157;-78
2023/09/16 14:46:52;;;;;;;3.70;3.30;;;;;;;30.58;37.93;100136.94;10483003;28;21270;-76
2023/09/16 14:51:57;;;;;;;2.92;2.63;;;;;;;30.15;38.77;100130.41;10478066;28;20113;-76
2023/09/16 14:57:00;;;;;;;3.50;3.20;;;;;;;29.98;38.88;100136.00;10481035;28;20060;-77
2023/09/16 15:02:06;;;;;;;5.40;3.13;;;;;;;29.07;40.32;100141.97;10479461;27;20056;-76
2023/09/16 15:07:11;;;;;;;5.68;4.95;;;;;;;28.35;41.93;100130.72;10478181;28;20120;-76
2023/09/16 15:12:14;;;;;;;5.15;4.55;;;;;;;27.79;43.77;100142.34;10483137;28;20076;-75
2023/09/16 15:17:17;;;;;;;4.25;3.92;;;;;;;27.49;44.48;100136.16;10483449;28;22007;-77
2023/09/16 15:22:21;;;;;;;4.50;4.20;;;;;;;27.48;44.82;100140.84;10482447;28;20050;-76
2023/09/16 15:27:24;;;;;;;5.13;4.05;;;;;;;27.38;45.60;100146.94;10478502;28;20050;-76
2023/09/16 15:32:28;;;;;;;8.05;3.75;;;;;;;27.06;46.13;100143.72;10477842;28;20059;-76
2023/09/16 15:37:49;;;;;;;3.67;3.38;;;;;;;26.98;46.48;100138.56;10479458;28;20496;-76
2023/09/16 15:42:53;;;;;;;4.63;3.55;;;;;;;27.01;46.70;100142.75;10479634;28;20521;-75
2023/09/16 15:47:55;;;;;;;4.03;3.58;;;;;;;26.95;47.29;100139.88;10478083;28;20048;-76
2023/09/16 15:53:00;;;;;;;4.10;3.80;;;;;;;26.74;47.77;100134.91;10474044;28;20523;-76
2023/09/16 15:58:03;;;;;;;3.67;3.38;;;;;;;26.12;51.18;100139.88;10475200;28;20055;-77
2023/09/16 16:03:06;;;;;;;4.13;3.53;;;;;;;25.02;56.11;100148.91;10469773;28;21065;-77
2023/09/16 16:08:11;;;;;;;4.93;3.53;;;;;;;25.42;56.64;100152.09;10476385;28;20090;-76
2023/09/16 16:13:13;;;;;;;3.88;3.47;;;;;;;25.71;55.11;100149.72;10483581;28;21272;-76
2023/09/16 16:18:18;;;;;;;4.03;3.70;;;;;;;25.98;55.93;100144.72;10476412;28;20051;-76
2023/09/16 16:23:23;;;;;;;4.45;3.97;;;;;;;26.07;55.77;100146.88;10473675;28;20052;-76
2023/09/16 16:28:27;;;;;;;4.30;3.60;;;;;;;26.05;54.95;100142.69;10482540;28;20116;-76
2023/09/16 16:33:30;;;;;;;5.05;3.72;;;;;;;25.86;54.49;100147.38;10487312;28;20043;-75
2023/09/16 16:38:34;;;;;;;5.10;4.00;;;;;;;24.93;56.55;100148.31;10494967;28;20059;-77
2023/09/16 16:43:37;;;;;;;4.38;4.07;;;;;;;24.90;58.25;100149.63;10518052;28;20175;-77
2023/09/16 16:48:40;;;;;;;4.45;4.10;;;;;;;24.94;58.56;100152.75;10510962;28;20084;-77
2023/09/16 16:53:46;;;;;;;5.72;4.82;;;;;;;24.91;57.16;100153.22;10502642;28;20060;-78
2023/09/16 16:58:49;;;;;;;5.03;4.28;;;;;;;24.63;58.14;100164.63;10499267;28;20055;-78
2023/09/16 17:03:52;;;;;;;4.63;4.22;;;;;;;24.18;59.68;100161.94;10506675;28;20048;-77
2023/09/16 17:08:59;;;;;;;8.20;4.63;;;;;;;24.16;59.53;100155.81;10503940;28;20090;-78
2023/09/16 17:14:02;;;;;;;4.72;4.30;;;;;;;24.08;59.24;100156.94;10528789;28;20063;-78
2023/09/16 17:19:05;;;;;;;5.25;4.00;;;;;;;24.06;59.51;100162.63;10507146;28;20052;-78
2023/09/16 17:24:10;;;;;;;5.40;4.45;;;;;;;23.96;59.85;100164.16;10501292;28;20052;-78
2023/09/16 17:29:13;;;;;;;4.55;4.15;;;;;;;23.86;60.19;100170.09;10490141;28;20123;-78
2023/09/16 17:34:18;;;;;;;5.45;4.68;;;;;;;23.72;60.79;100168.41;10484764;28;20055;-78
2023/09/16 17:39:23;;;;;;;5.20;4.80;;;;;;;23.45;60.92;100171.25;10497649;27;20057;-77
2023/09/16 17:44:26;;;;;;;6.07;4.75;;;;;;;23.34;61.35;100180.97;10502634;28;20044;-77
2023/09/16 17:49:32;;;;;;;5.50;5.07;;;;;;;23.26;61.55;100185.81;10487799;28;20070;-78
2023/09/16 17:54:36;;;;;;;6.38;4.70;;;;;;;23.14;62.25;100189.19;10493865;28;21744;-78
2023/09/16 17:59:39;;;;;;;6.57;5.70;;;;;;;22.98;62.17;100198.69;10500710;28;20427;-79
2023/09/16 18:04:42;;;;;;;6.18;5.53;;;;;;;22.91;62.85;100200.56;10502967;28;20128;-77
2023/09/16 18:09:47;;;;;;;5.63;5.13;;;;;;;22.69;62.84;100208.13;10500168;28;20426;-78
2023/09/16 18:14:50;;;;;;;6.55;5.90;;;;;;;22.67;63.05;100209.38;10483226;28;20104;-76
2023/09/16 18:19:53;;;;;;;6.70;5.95;;;;;;;22.64;63.51;100218.84;10484516;28;20043;-74
2023/09/16 18:24:57;;;;;;;9.63;6.25;;;;;;;22.48;63.36;100224.72;10493397;28;20044;-74
2023/09/16 18:30:00;;;;;;;9.07;6.30;;;;;;;22.51;63.07;100227.03;10489654;28;20044;-75
2023/09/16 18:35:03;;;;;;;9.63;5.80;;;;;;;22.52;63.14;100236.94;10493264;28;20044;-74
2023/09/16 18:40:08;;;;;;;11.65;8.05;;;;;;;22.36;63.80;100240.03;10490935;28;20048;-76
2023/09/16 18:45:11;;;;;;;9.02;7.30;;;;;;;22.25;64.39;100245.03;10490024;28;20046;-74
2023/09/16 18:50:15;;;;;;;9.95;7.25;;;;;;;22.15;64.73;100251.91;10491777;28;20067;-76
2023/09/16 18:55:19;;;;;;;7.65;6.88;;;;;;;22.01;65.22;100257.31;10487940;28;20070;-76
2023/09/16 19:00:22;;;;;;;8.65;6.30;;;;;;;21.88;65.33;100260.81;10488271;28;20487;-75
2023/09/16 19:05:25;;;;;;;6.82;6.22;;;;;;;21.77;66.10;100263.28;10485820;28;20039;-75
2023/09/16 19:10:30;;;;;;;6.95;6.32;;;;;;;21.65;66.25;100255.63;10481086;28;20136;-76
2023/09/16 19:15:33;;;;;;;7.07;6.38;;;;;;;21.54;66.31;100266.25;10482420;28;20048;-76
2023/09/16 19:20:37;;;;;;;9.20;6.35;;;;;;;21.50;66.25;100256.75;10482851;28;20495;-76
2023/09/16 19:25:41;;;;;;;6.65;6.05;;;;;;;21.46;66.71;100261.78;10483778;28;20129;-76
2023/09/16 19:30:44;;;;;;;6.90;6.30;;;;;;;21.36;66.62;100261.28;10487614;28;20167;-76
2023/09/16 19:35:48;;;;;;;6.78;6.22;;;;;;;21.30;66.63;100259.34;10488233;28;20045;-77
2023/09/16 19:40:52;;;;;;;7.00;6.22;;;;;;;21.30;67.39;100257.47;10484253;28;20767;-77
2023/09/16 19:46:00;;;;;;;9.07;6.82;;;;;;;21.30;67.20;100262.09;10481129;28;20054;-77
2023/09/16 19:51:03;;;;;;;7.25;5.60;;;;;;;21.16;67.29;100261.13;10483113;28;20090;-76
2023/09/16 19:56:08;;;;;;;8.88;6.78;;;;;;;21.16;67.84;100259.22;10480231;28;20670;-75
2023/09/16 20:01:10;;;;;;;7.82;6.90;;;;;;;21.10;67.87;100268.22;10481642;28;20895;-75
2023/09/16 20:06:15;;;;;;;8.57;7.47;;;;;;;20.96;68.50;100264.50;10479500;28;20808;-76
2023/09/16 20:11:20;;;;;;;7.35;6.65;;;;;;;20.96;68.74;100275.41;10483714;28;20044;-75
2023/09/16 20:16:23;;;;;;;10.20;7.28;;;;;;;20.91;68.42;100261.50;10478559;28;20237;-75
2023/09/16 20:21:28;;;;;;;8.00;7.13;;;;;;;20.87;68.65;100262.94;10480633;28;20074;-76
2023/09/16 20:26:33;;;;;;;8.85;7.95;;;;;;;20.65;69.05;100261.22;10490737;28;20059;-75
2023/09/16 20:31:36;;;;;;;9.57;8.68;;;;;;;20.59;70.08;100262.00;10489065;28;20740;-75
2023/09/16 20:36:43;;;;;;;9.98;8.85;;;;;;;20.55;70.21;100258.81;10491030;28;20815;-75
2023/09/16 20:41:47;;;;;;;9.65;8.52;;;;;;;20.51;70.53;100258.34;10479773;28;20048;-75
2023/09/16 20:46:50;;;;;;;10.38;9.27;;;;;;;20.39;70.61;100253.59;10481938;28;20615;-76
2023/09/16 20:51:53;;;;;;;10.60;9.05;;;;;;;20.32;71.34;100246.19;10486367;28;20059;-76
2023/09/16 20:56:58;;;;;;;9.70;8.80;;;;;;;20.26;71.64;100246.06;10477900;28;20487;-75
2023/09/16 21:02:01;;;;;;;11.40;9.95;;;;;;;20.26;71.71;100248.78;10490383;28;20048;-76
2023/09/16 21:07:04;;;;;;;10.48;9.48;;;;;;;20.25;72.00;100239.75;10482416;28;21209;-75
2023/09/16 21:12:09;;;;;;;11.43;9.27;;;;;;;20.18;71.67;100246.16;10482641;28;20055;-76
2023/09/16 21:17:11;;;;;;;11.65;9.75;;;;;;;20.10;71.90;100258.03;10480058;28;20515;-76
2023/09/16 21:22:14;;;;;;;11.52;9.60;;;;;;;20.12;71.75;100254.06;10482622;28;20518;-76
2023/09/16 21:27:19;;;;;;;10.32;9.32;;;;;;;20.05;72.74;100258.59;10488029;28;20044;-77
2023/09/16 21:32:22;;;;;;;13.45;9.48;;;;;;;20.11;72.60;100263.28;10486368;28;20102;-75
2023/09/16 21:37:25;;;;;;;10.43;9.32;;;;;;;20.05;72.49;100257.78;10483063;28;20048;-76
2023/09/16 21:42:29;;;;;;;11.35;8.68;;;;;;;19.93;72.78;100265.56;10483762;27;20043;-75
2023/09/16 21:47:32;;;;;;;12.73;10.43;;;;;;;19.44;75.35;100268.78;10485902;28;20090;-76
2023/09/16 21:52:35;;;;;;;12.23;10.23;;;;;;;18.89;77.60;100269.94;10483722;28;20060;-76
2023/09/16 21:57:39;;;;;;;12.98;10.55;;;;;;;18.99;78.29;100271.38;10480628;28;20052;-75
2023/09/16 22:02:42;;;;;;;13.77;10.55;;;;;;;19.14;77.71;100262.41;10480965;28;20131;-75
2023/09/16 22:07:45;;;;;;;11.43;10.05;;;;;;;19.46;76.81;100264.00;10480688;27;20045;-76
2023/09/16 22:12:54;;;;;;;11.77;10.57;;;;;;;19.62;75.65;100268.47;10483819;28;20074;-76
2023/09/16 22:17:57;;;;;;;15.75;10.32;;;;;;;19.50;75.60;100268.06;10478115;28;20136;-76
2023/09/16 22:23:00;;;;;;;11.00;9.90;;;;;;;19.63;75.47;100264.69;10474934;28;20048;-75
2023/09/16 22:28:04;;;;;;;10.80;9.75;;;;;;;19.74;75.16;100268.84;10469854;28;20052;-76
2023/09/16 22:33:07;;;;;;;14.98;11.68;;;;;;;19.61;75.34;100266.75;10469984;28;20620;-76
2023/09/16 22:38:10;;;;;;;16.38;12.48;;;;;;;19.60;75.55;100262.34;10473381;28;20143;-76
2023/09/16 22:43:14;;;;;;;17.10;14.98;;;;;;;19.54;75.40;100266.63;10472583;28;20045;-76
2023/09/16 22:48:17;;;;;;;17.08;15.27;;;;;;;19.52;75.80;100262.41;10474220;28;20040;-75
2023/09/16 22:53:20;;;;;;;21.20;17.92;;;;;;;19.54;75.29;100255.75;10468768;28;20262;-76
2023/09/16 22:58:24;;;;;;;15.00;13.40;;;;;;;19.34;75.66;100265.50;10473826;28;21276;-76
2023/09/16 23:03:27;;;;;;;16.15;12.60;;;;;;;19.38;75.61;100266.81;10475526;27;20048;-76
2023/09/16 23:08:30;;;;;;;14.93;13.35;;;;;;;18.96;77.55;100266.31;10484280;28;20175;-76
2023/09/16 23:13:34;;;;;;;14.63;13.10;;;;;;;18.99;78.41;100265.09;10479740;28;20055;-76